createdAt,value
2019-02-27T00:01:19.707Z,58.79
2019-02-27T00:03:49.262Z,58.75
2019-02-27T00:06:18.510Z,59.39
2019-02-27T00:09:03.055Z,58.02
2019-02-27T00:11:33.717Z,57.07
2019-02-27T00:14:05.527Z,56.77
2019-02-27T00:16:34.793Z,56.96
2019-02-27T00:19:06.430Z,57.27
2019-02-27T00:21:35.697Z,56.89
2019-02-27T00:24:04.925Z,56.97
2019-02-27T00:26:36.371Z,57.25
2019-02-27T00:29:07.031Z,57.86
2019-02-27T00:31:36.569Z,58.31
2019-02-27T00:34:05.799Z,58.54
2019-02-27T00:36:44.835Z,58.71
2019-02-27T00:39:12.066Z,58.26
2019-02-27T00:41:43.092Z,57.51
2019-02-27T00:44:19.380Z,57.15
2019-02-27T00:46:50.413Z,57.42
2019-02-27T00:49:19.815Z,57.29
2019-02-27T00:51:50.108Z,56.30
2019-02-27T00:54:23.523Z,57.16
2019-02-27T00:56:55.540Z,54.95
2019-02-27T00:59:27.293Z,55.81
2019-02-27T01:01:56.580Z,54.43
2019-02-27T01:04:28.643Z,54.68
2019-02-27T01:06:59.977Z,52.12
2019-02-27T01:09:29.206Z,52.59
2019-02-27T01:11:58.744Z,54.50
2019-02-27T01:14:27.972Z,55.07
2019-02-27T01:16:57.338Z,55.59
2019-02-27T01:19:26.889Z,55.95
2019-02-27T01:21:58.332Z,56.35
2019-02-27T01:24:31.426Z,57.51
2019-02-27T01:27:05.765Z,58.31
2019-02-27T01:29:34.982Z,58.33
2019-02-27T01:32:06.298Z,58.42
2019-02-27T01:34:35.526Z,58.41
2019-02-27T01:37:07.447Z,58.10
2019-02-27T01:39:37.830Z,58.75
2019-02-27T01:42:09.114Z,59.49
2019-02-27T01:44:43.960Z,60.20
2019-02-27T01:47:14.174Z,60.86
2019-02-27T01:49:43.421Z,61.21
2019-02-27T01:52:14.312Z,61.62
2019-02-27T01:54:46.103Z,62.82
2019-02-27T01:57:18.675Z,63.33
2019-02-27T01:59:50.273Z,63.42
2019-02-27T02:02:20.608Z,62.32
2019-02-27T02:04:52.919Z,62.57
2019-02-27T02:07:21.448Z,62.59
2019-02-27T02:09:55.096Z,62.48
2019-02-27T02:12:31.598Z,61.93
2019-02-27T02:15:37.131Z,62.07
2019-02-27T02:19:05.978Z,62.41
2019-02-27T02:22:18.475Z,62.43
2019-02-27T02:25:36.432Z,60.99
2019-02-27T02:28:33.638Z,59.80
2019-02-27T02:31:34.097Z,60.95
2019-02-27T02:34:40.912Z,61.50
2019-02-27T02:37:47.934Z,59.68
2019-02-27T02:41:28.926Z,59.52
2019-02-27T02:44:57.236Z,59.97
2019-02-27T02:47:58.398Z,59.92
2019-02-27T02:51:12.464Z,59.43
2019-02-27T02:54:20.143Z,59.28
2019-02-27T02:57:37.076Z,59.68
2019-02-27T03:00:37.919Z,59.89
2019-02-27T03:03:37.041Z,60.51
2019-02-27T03:06:35.095Z,61.14
2019-02-27T03:09:35.736Z,61.90
2019-02-27T03:12:31.211Z,62.55
2019-02-27T03:15:56.861Z,62.87
2019-02-27T03:18:53.940Z,63.19
2019-02-27T03:22:13.330Z,63.37
2019-02-27T03:25:19.327Z,63.26
2019-02-27T03:28:40.540Z,63.50
2019-02-27T03:31:57.846Z,64.41
2019-02-27T03:35:01.369Z,65.08
2019-02-27T03:37:49.490Z,65.64
2019-02-27T03:41:10.659Z,66.48
2019-02-27T03:44:21.872Z,67.08
2019-02-27T03:47:16.782Z,67.12
2019-02-27T03:50:27.197Z,66.64
2019-02-27T03:53:47.969Z,67.51
2019-02-27T03:56:53.478Z,67.54
2019-02-27T03:59:58.823Z,68.27
2019-02-27T04:02:52.843Z,68.36
2019-02-27T04:05:56.118Z,68.37
2019-02-27T04:09:00.388Z,68.83
2019-02-27T04:11:31.776Z,68.00
2019-02-27T04:14:05.547Z,67.97
2019-02-27T04:16:37.892Z,68.08
2019-02-27T04:19:06.269Z,68.27
2019-02-27T04:21:35.511Z,67.85
2019-02-27T04:24:05.488Z,68.18
2019-02-27T04:26:35.119Z,68.64
2019-02-27T04:29:07.598Z,68.49
2019-02-27T04:31:39.770Z,68.12
2019-02-27T04:34:10.729Z,67.91
2019-02-27T04:36:39.972Z,67.63
2019-02-27T04:39:10.188Z,67.55
2019-02-27T04:41:45.013Z,67.80
2019-02-27T04:44:14.247Z,67.89
2019-02-27T04:46:46.508Z,68.29
2019-02-27T04:49:16.771Z,68.24
2019-02-27T04:51:48.085Z,69.91
2019-02-27T04:54:16.986Z,71.66
2019-02-27T04:56:47.437Z,72.15
2019-02-27T04:59:20.317Z,71.42
2019-02-27T05:01:53.728Z,73.12
2019-02-27T05:04:27.028Z,72.99
2019-02-27T05:06:56.651Z,72.49
2019-02-27T05:09:26.952Z,72.98
2019-02-27T05:11:56.185Z,73.01
2019-02-27T05:14:27.374Z,72.83
2019-02-27T05:16:57.114Z,72.53
2019-02-27T05:19:26.337Z,73.31
2019-02-27T05:21:55.566Z,75.00
2019-02-27T05:24:27.967Z,74.41
2019-02-27T05:27:06.401Z,73.77
2019-02-27T05:29:37.542Z,77.87
2019-02-27T05:32:06.962Z,78.64
2019-02-27T05:34:40.066Z,78.25
2019-02-27T05:37:09.313Z,77.24
2019-02-27T05:39:38.532Z,76.67
2019-02-27T05:42:13.147Z,75.66
2019-02-27T05:44:43.313Z,75.22
2019-02-27T05:47:15.805Z,74.73
2019-02-27T05:49:48.860Z,74.25
2019-02-27T05:52:19.233Z,73.40
2019-02-27T05:54:50.942Z,73.58
2019-02-27T05:57:23.204Z,74.22
2019-02-27T05:59:51.910Z,73.69
2019-02-27T06:02:25.458Z,73.45
2019-02-27T06:04:59.053Z,73.09
2019-02-27T06:07:28.492Z,73.07
2019-02-27T06:09:59.738Z,73.33
2019-02-27T06:12:30.959Z,73.61
2019-02-27T06:15:03.509Z,73.35
2019-02-27T06:17:42.928Z,73.30
2019-02-27T06:20:07.906Z,73.48
2019-02-27T06:22:37.662Z,73.59
2019-02-27T06:25:07.571Z,73.33
2019-02-27T06:27:39.958Z,73.19
2019-02-27T06:30:12.206Z,73.24
2019-02-27T06:32:41.550Z,73.56
2019-02-27T06:35:12.141Z,73.24
2019-02-27T06:37:50.441Z,73.01
2019-02-27T06:40:21.222Z,72.71
2019-02-27T06:43:03.040Z,72.29
2019-02-27T06:45:32.884Z,71.47
2019-02-27T06:48:02.417Z,70.58
2019-02-27T06:50:32.536Z,69.78
2019-02-27T06:53:03.445Z,69.18
2019-02-27T06:55:33.903Z,68.80
2019-02-27T06:58:07.348Z,67.87
2019-02-27T07:00:37.320Z,67.65
2019-02-27T07:03:08.977Z,66.93
2019-02-27T07:05:39.631Z,66.08
2019-02-27T07:08:11.382Z,65.65
2019-02-27T07:10:42.179Z,64.98
2019-02-27T07:13:22.121Z,63.68
2019-02-27T07:15:55.619Z,62.80
2019-02-27T07:18:25.755Z,61.49
2019-02-27T07:20:58.501Z,60.13
2019-02-27T07:23:28.866Z,56.98
2019-02-27T07:26:05.589Z,53.02
2019-02-27T07:28:34.831Z,47.16
2019-02-27T07:31:04.624Z,43.03
2019-02-27T07:33:34.481Z,39.42
2019-02-27T07:36:05.550Z,37.39
2019-02-27T07:38:34.823Z,37.37
2019-02-27T07:41:05.020Z,35.61
2019-02-27T07:43:35.467Z,32.33
2019-02-27T07:46:06.898Z,30.21
2019-02-27T07:48:37.718Z,27.61
2019-02-27T07:51:09.833Z,25.96
2019-02-27T07:53:42.045Z,24.54
2019-02-27T07:56:13.415Z,22.45
2019-02-27T07:58:42.899Z,20.66
2019-02-27T08:01:14.339Z,19.02
2019-02-27T08:03:46.901Z,18.05
2019-02-27T08:06:16.781Z,17.53
2019-02-27T08:08:48.564Z,17.82
2019-02-27T08:11:21.621Z,17.22
2019-02-27T08:13:52.006Z,16.51
2019-02-27T08:16:22.711Z,16.06
2019-02-27T08:18:51.970Z,16.33
2019-02-27T08:21:21.234Z,15.73
2019-02-27T08:23:55.122Z,15.28
2019-02-27T08:26:24.439Z,14.79
2019-02-27T08:28:58.364Z,13.76
2019-02-27T08:31:32.099Z,13.44
2019-02-27T08:34:01.505Z,13.07
2019-02-27T08:36:31.924Z,12.49
2019-02-27T08:39:01.150Z,12.29
2019-02-27T08:41:32.185Z,12.58
2019-02-27T08:44:03.555Z,13.27
2019-02-27T08:46:33.970Z,13.30
2019-02-27T08:49:07.221Z,13.54
2019-02-27T08:51:39.802Z,13.76
2019-02-27T08:54:09.209Z,14.43
2019-02-27T08:56:38.456Z,13.76
2019-02-27T08:59:09.074Z,14.59
2019-02-27T09:01:38.358Z,14.41
2019-02-27T09:04:11.435Z,13.97
2019-02-27T09:06:42.739Z,15.33
2019-02-27T09:09:14.984Z,16.38
2019-02-27T09:11:44.852Z,15.27
2019-02-27T09:14:14.508Z,14.55
2019-02-27T09:16:44.006Z,14.30
2019-02-27T09:19:15.899Z,13.54
2019-02-27T09:21:45.605Z,13.36
2019-02-27T09:24:15.400Z,13.62
2019-02-27T09:26:46.191Z,13.45
2019-02-27T09:29:18.368Z,13.30
2019-02-27T09:31:51.372Z,13.44
2019-02-27T09:34:40.655Z,14.13
2019-02-27T09:37:22.852Z,14.56
2019-02-27T09:39:54.592Z,13.31
2019-02-27T09:42:27.951Z,14.16
2019-02-27T09:45:08.255Z,14.79
2019-02-27T09:47:39.870Z,14.44
2019-02-27T09:50:14.712Z,14.71
2019-02-27T09:52:52.071Z,15.38
2019-02-27T09:55:22.035Z,16.81
2019-02-27T09:57:55.879Z,18.17
2019-02-27T10:00:39.416Z,19.80
2019-02-27T10:03:09.601Z,20.48
2019-02-27T10:05:40.896Z,20.41
2019-02-27T10:08:13.803Z,19.57
2019-02-27T10:10:45.767Z,19.42
2019-02-27T10:13:16.032Z,19.91
2019-02-27T10:15:47.163Z,18.71
2019-02-27T10:18:21.862Z,18.09
2019-02-27T10:20:59.739Z,18.84
2019-02-27T10:23:31.161Z,19.04
2019-02-27T10:26:02.657Z,19.68
2019-02-27T10:28:38.804Z,20.25
2019-02-27T10:31:06.875Z,20.16
2019-02-27T10:33:48.306Z,19.26
2019-02-27T10:36:18.391Z,20.61
2019-02-27T10:38:47.921Z,20.66
2019-02-27T10:41:18.794Z,21.30
2019-02-27T10:44:03.690Z,21.27
2019-02-27T10:46:35.718Z,20.51
2019-02-27T10:49:04.969Z,20.67
2019-02-27T10:51:35.263Z,20.99
2019-02-27T10:54:07.550Z,20.70
2019-02-27T10:56:37.936Z,21.85
2019-02-27T10:59:09.966Z,21.34
2019-02-27T11:01:40.368Z,21.51
2019-02-27T11:04:11.249Z,21.46
2019-02-27T11:06:53.438Z,21.25
2019-02-27T11:09:27.139Z,21.68
2019-02-27T11:11:56.695Z,22.27
2019-02-27T11:14:25.910Z,21.02
2019-02-27T11:17:02.684Z,21.93
2019-02-27T11:19:30.722Z,22.32
2019-02-27T11:22:03.451Z,22.66
2019-02-27T11:24:33.182Z,23.10
2019-02-27T11:27:07.459Z,23.90
2019-02-27T11:29:37.407Z,25.15
2019-02-27T11:32:08.222Z,24.85
2019-02-27T11:34:38.685Z,25.25
2019-02-27T11:37:12.979Z,25.19
2019-02-27T11:39:39.276Z,25.59
2019-02-27T11:42:16.025Z,26.07
2019-02-27T11:44:49.399Z,25.72
2019-02-27T11:47:19.738Z,25.62
2019-02-27T11:49:48.963Z,25.60
2019-02-27T11:52:18.207Z,26.16
2019-02-27T11:54:48.247Z,26.57
2019-02-27T11:57:17.858Z,26.69
2019-02-27T11:59:48.415Z,25.78
2019-02-27T12:02:28.626Z,26.33
2019-02-27T12:04:55.370Z,25.86
2019-02-27T12:07:26.491Z,25.90
2019-02-27T12:09:57.730Z,25.49
2019-02-27T12:12:27.767Z,26.06
2019-02-27T12:14:57.026Z,25.99
2019-02-27T12:17:27.605Z,25.46
2019-02-27T12:20:00.708Z,25.20
2019-02-27T12:22:32.925Z,25.15
2019-02-27T12:25:07.275Z,24.67
2019-02-27T12:27:48.565Z,24.95
2019-02-27T12:30:11.551Z,25.73
2019-02-27T12:32:41.242Z,26.58
2019-02-27T12:35:18.189Z,27.71
2019-02-27T12:37:49.139Z,28.61
2019-02-27T12:40:24.083Z,28.36
2019-02-27T12:42:54.005Z,28.43
2019-02-27T12:45:26.494Z,28.50
2019-02-27T12:47:57.222Z,28.88
2019-02-27T12:50:31.223Z,29.13
2019-02-27T12:53:00.757Z,30.74
2019-02-27T12:55:30.377Z,30.74
2019-02-27T12:57:59.607Z,30.49
2019-02-27T13:00:30.410Z,29.64
2019-02-27T13:03:02.651Z,29.75
2019-02-27T13:05:33.093Z,28.54
2019-02-27T13:08:03.674Z,28.25
2019-02-27T13:10:43.653Z,28.29
2019-02-27T13:13:19.964Z,27.52
2019-02-27T13:15:52.277Z,28.42
2019-02-27T13:18:21.676Z,28.18
2019-02-27T13:20:54.732Z,27.80
2019-02-27T13:23:24.183Z,27.26
2019-02-27T13:26:02.392Z,27.11
2019-02-27T13:28:31.612Z,26.74
2019-02-27T13:31:02.610Z,26.97
2019-02-27T13:33:32.979Z,27.76
2019-02-27T13:36:02.800Z,26.68
2019-02-27T13:38:34.505Z,25.82
2019-02-27T13:41:07.740Z,26.06
2019-02-27T13:43:36.813Z,27.38
2019-02-27T13:46:06.067Z,27.22
2019-02-27T13:48:39.812Z,28.24
2019-02-27T13:51:09.253Z,28.37
2019-02-27T13:53:39.148Z,26.95
2019-02-27T13:56:11.553Z,27.14
2019-02-27T13:58:45.666Z,27.67
2019-02-27T14:01:19.913Z,27.69
2019-02-27T14:03:49.158Z,27.40
2019-02-27T14:06:21.175Z,26.29
2019-02-27T14:08:51.910Z,26.09
2019-02-27T14:11:24.886Z,26.49
2019-02-27T14:13:56.457Z,26.64
2019-02-27T14:16:26.895Z,27.12
2019-02-27T14:19:07.228Z,27.54
2019-02-27T14:21:36.748Z,28.60
2019-02-27T14:24:06.893Z,28.44
2019-02-27T14:26:41.486Z,27.96
2019-02-27T14:29:12.657Z,27.46
2019-02-27T14:31:44.180Z,26.82
2019-02-27T14:34:15.038Z,27.08
2019-02-27T14:36:46.356Z,26.71
2019-02-27T14:39:15.653Z,26.70
2019-02-27T14:41:51.347Z,27.10
2019-02-27T14:44:21.345Z,27.55
2019-02-27T14:46:59.886Z,26.87
2019-02-27T14:49:31.228Z,27.08
2019-02-27T14:52:01.530Z,26.30
2019-02-27T14:54:34.509Z,26.92
2019-02-27T14:57:16.752Z,27.34
2019-02-27T14:59:55.364Z,27.43
2019-02-27T15:02:27.684Z,26.83
2019-02-27T15:05:00.050Z,27.51
2019-02-27T15:07:31.532Z,27.32
2019-02-27T15:10:14.756Z,26.79
2019-02-27T15:12:44.294Z,26.76
2019-02-27T15:15:16.829Z,26.48
2019-02-27T15:17:47.802Z,26.29
2019-02-27T15:20:19.348Z,27.51
2019-02-27T15:22:55.552Z,28.06
2019-02-27T15:25:27.426Z,29.61
2019-02-27T15:27:59.954Z,31.24
2019-02-27T15:30:35.188Z,32.47
2019-02-27T15:33:07.320Z,33.16
2019-02-27T15:35:38.120Z,34.33
2019-02-27T15:38:12.353Z,35.14
2019-02-27T15:40:46.889Z,35.74
2019-02-27T15:43:17.338Z,36.54
2019-02-27T15:45:51.736Z,37.60
2019-02-27T15:48:25.927Z,38.66
2019-02-27T15:50:57.453Z,37.55
2019-02-27T15:53:28.494Z,37.01
2019-02-27T15:56:01.051Z,36.49
2019-02-27T15:58:32.687Z,37.00
2019-02-27T16:01:02.652Z,37.40
2019-02-27T16:03:42.071Z,37.78
2019-02-27T16:06:15.734Z,38.07
2019-02-27T16:08:46.169Z,38.57
2019-02-27T16:11:17.388Z,39.08
2019-02-27T16:13:49.128Z,39.48
2019-02-27T16:16:23.322Z,40.35
2019-02-27T16:18:52.973Z,40.58
2019-02-27T16:21:24.372Z,40.73
2019-02-27T16:23:55.196Z,41.47
2019-02-27T16:26:27.181Z,42.03
2019-02-27T16:28:58.171Z,42.95
2019-02-27T16:31:27.679Z,43.91
2019-02-27T16:34:00.743Z,44.85
2019-02-27T16:36:36.273Z,45.40
2019-02-27T16:39:12.560Z,46.01
2019-02-27T16:41:46.507Z,46.47
2019-02-27T16:44:16.074Z,47.07
2019-02-27T16:47:06.042Z,47.67
2019-02-27T16:49:35.271Z,48.21
2019-02-27T16:52:09.913Z,48.49
2019-02-27T16:54:39.124Z,48.80
2019-02-27T16:57:12.507Z,49.16
2019-02-27T16:59:45.548Z,49.22
2019-02-27T17:02:14.286Z,49.38
2019-02-27T17:04:45.813Z,49.79
2019-02-27T17:07:16.523Z,50.09
2019-02-27T17:09:48.044Z,50.62
2019-02-27T17:12:21.529Z,51.21
2019-02-27T17:14:55.424Z,51.57
2019-02-27T17:17:26.096Z,51.83
2019-02-27T17:19:58.364Z,52.12
2019-02-27T17:22:30.306Z,52.31
2019-02-27T17:25:01.258Z,52.46
2019-02-27T17:27:36.550Z,52.63
2019-02-27T17:30:14.474Z,52.74
2019-02-27T17:32:43.703Z,53.05
2019-02-27T17:35:15.461Z,53.28
2019-02-27T17:37:46.225Z,53.66
2019-02-27T17:40:18.173Z,53.71
2019-02-27T17:42:53.549Z,53.57
2019-02-27T17:45:26.995Z,53.65
2019-02-27T17:47:56.829Z,53.62
2019-02-27T17:50:28.465Z,53.68
2019-02-27T17:52:58.031Z,53.64
2019-02-27T17:55:31.773Z,53.91
2019-02-27T17:58:04.791Z,54.35
2019-02-27T18:00:39.171Z,54.65
2019-02-27T18:03:08.781Z,55.18
2019-02-27T18:05:39.208Z,55.74
2019-02-27T18:08:09.686Z,56.23
2019-02-27T18:10:39.929Z,56.86
2019-02-27T18:13:19.095Z,57.08
2019-02-27T18:15:53.283Z,57.37
2019-02-27T18:18:25.211Z,57.42
2019-02-27T18:20:56.725Z,57.88
2019-02-27T18:23:26.916Z,57.97
2019-02-27T18:25:56.341Z,58.43
2019-02-27T18:28:32.756Z,58.50
2019-02-27T18:30:59.698Z,59.00
2019-02-27T18:33:31.555Z,59.20
2019-02-27T18:36:04.803Z,59.55
2019-02-27T18:38:34.861Z,59.69
2019-02-27T18:41:04.141Z,59.69
2019-02-27T18:43:34.276Z,59.81
2019-02-27T18:46:03.489Z,60.26
2019-02-27T18:48:36.903Z,60.48
2019-02-27T18:51:10.096Z,60.46
2019-02-27T18:53:41.124Z,60.72
2019-02-27T18:56:12.534Z,60.85
2019-02-27T18:58:42.667Z,60.95
2019-02-27T19:01:11.891Z,61.12
2019-02-27T19:03:44.580Z,61.20
2019-02-27T19:06:14.072Z,61.05
2019-02-27T19:08:45.868Z,61.12
2019-02-27T19:11:33.476Z,62.58
2019-02-27T19:14:05.837Z,63.86
2019-02-27T19:16:34.015Z,64.32
2019-02-27T19:19:03.255Z,64.55
2019-02-27T19:21:33.909Z,65.20
2019-02-27T19:24:08.266Z,66.43
2019-02-27T19:26:38.329Z,67.40
2019-02-27T19:29:08.150Z,68.42
2019-02-27T19:31:39.203Z,69.23
2019-02-27T19:34:10.974Z,68.78
2019-02-27T19:36:50.304Z,67.79
2019-02-27T19:39:21.713Z,67.28
2019-02-27T19:41:51.876Z,66.47
2019-02-27T19:44:21.103Z,66.71
2019-02-27T19:46:52.063Z,66.58
2019-02-27T19:49:21.913Z,66.43
2019-02-27T19:51:54.915Z,66.11
2019-02-27T19:54:25.362Z,65.94
2019-02-27T19:56:55.980Z,66.02
2019-02-27T19:59:25.702Z,66.08
2019-02-27T20:01:57.452Z,66.15
2019-02-27T20:04:29.289Z,66.38
2019-02-27T20:07:01.836Z,66.49
2019-02-27T20:09:31.941Z,66.43
2019-02-27T20:12:04.181Z,66.63
2019-02-27T20:14:36.709Z,66.74
2019-02-27T20:17:07.284Z,66.86
2019-02-27T20:19:37.681Z,66.73
2019-02-27T20:22:07.772Z,66.33
2019-02-27T20:24:48.007Z,66.32
2019-02-27T20:27:21.131Z,66.58
2019-02-27T20:29:55.490Z,66.47
2019-02-27T20:32:28.389Z,67.00
2019-02-27T20:34:56.462Z,66.98
2019-02-27T20:37:47.560Z,67.31
2019-02-27T20:40:20.245Z,67.18
2019-02-27T20:42:53.781Z,67.04
2019-02-27T20:45:21.243Z,67.03
2019-02-27T20:47:50.819Z,67.28
2019-02-27T20:50:40.067Z,67.18
2019-02-27T20:53:12.628Z,67.63
2019-02-27T20:55:42.350Z,67.45
2019-02-27T20:58:16.209Z,67.84
2019-02-27T21:00:43.471Z,68.23
2019-02-27T21:03:12.959Z,67.83
2019-02-27T21:05:51.442Z,67.59
2019-02-27T21:08:25.597Z,67.73
2019-02-27T21:10:56.360Z,68.08
2019-02-27T21:13:29.057Z,67.99
2019-02-27T21:15:59.494Z,68.33
2019-02-27T21:18:33.399Z,68.01
2019-02-27T21:21:05.033Z,68.04
2019-02-27T21:23:37.299Z,67.95
2019-02-27T21:26:09.549Z,67.95
2019-02-27T21:28:44.997Z,68.73
2019-02-27T21:31:16.313Z,69.81
2019-02-27T21:33:48.402Z,71.36
2019-02-27T21:36:20.455Z,71.95
2019-02-27T21:38:51.487Z,70.70
2019-02-27T21:41:21.163Z,70.01
2019-02-27T21:43:53.287Z,71.58
2019-02-27T21:46:23.962Z,71.46
2019-02-27T21:48:53.214Z,71.36
2019-02-27T21:51:24.988Z,71.43
2019-02-27T21:53:55.333Z,71.69
2019-02-27T21:56:26.050Z,72.05
2019-02-27T21:58:56.910Z,72.01
2019-02-27T22:01:29.586Z,71.86
2019-02-27T22:04:01.508Z,71.65
2019-02-27T22:06:41.144Z,71.59
2019-02-27T22:09:21.141Z,71.79
2019-02-27T22:11:51.260Z,71.57
2019-02-27T22:14:21.972Z,71.60
2019-02-27T22:16:56.128Z,71.62
2019-02-27T22:19:26.123Z,71.10
2019-02-27T22:21:58.551Z,71.49
2019-02-27T22:24:31.504Z,71.43
2019-02-27T22:27:09.277Z,71.37
2019-02-27T22:29:42.482Z,71.68
2019-02-27T22:32:15.391Z,71.80
2019-02-27T22:34:47.653Z,72.32
2019-02-27T22:37:20.707Z,72.34
2019-02-27T22:39:53.488Z,72.33
2019-02-27T22:42:23.922Z,72.28
2019-02-27T22:45:04.267Z,72.37
2019-02-27T22:47:35.711Z,72.65
2019-02-27T23:03:11.812Z,73.83
2019-02-27T23:05:41.097Z,73.89
2019-02-27T23:08:10.626Z,73.56
2019-02-27T23:10:39.877Z,73.64
2019-02-27T23:13:12.811Z,73.63
2019-02-27T23:15:41.493Z,73.92
2019-02-27T23:18:11.047Z,74.36
2019-02-27T23:20:40.400Z,73.96
2019-02-27T23:23:09.720Z,74.09
2019-02-27T23:25:38.967Z,74.10
2019-02-27T23:28:08.315Z,74.17
2019-02-27T23:30:37.974Z,74.40
2019-02-27T23:33:07.198Z,74.19
2019-02-27T23:35:36.440Z,74.17
2019-02-27T23:38:05.826Z,74.33
2019-02-27T23:40:36.274Z,74.07
2019-02-27T23:43:05.494Z,74.22
2019-02-27T23:45:34.738Z,74.29
2019-02-27T23:48:04.063Z,74.39
2019-02-27T23:50:33.312Z,74.40
2019-02-27T23:53:02.562Z,74.41
2019-02-27T23:55:31.880Z,74.21
2019-02-27T23:58:01.099Z,74.22
